Time;durP1;ratioP1;P1;durP2;ratioP2;P2;SDS_P1;SDS_P2;PMS_P1;PMS_P2;Temp;Humidity;BMP_temperature;BMP_pressure;BME280_temperature;BME280_humidity;BME280_pressure;Samples;Min_cycle;Max_cycle;Signal;HPM_P1;HPM_P2
2021/06/26 00:00:07;;;;;;;15.67;14.30;;;16.90;99.90;;;;;;4992608;28;20419;-67
2021/06/26 00:02:32;;;;;;;13.93;12.63;;;17.00;99.90;;;;;;4992518;28;20434;-67
2021/06/26 00:04:58;;;;;;;14.70;13.20;;;17.00;99.90;;;;;;4992435;28;21011;-66
2021/06/26 00:07:23;;;;;;;19.30;15.03;;;17.00;99.90;;;;;;4992859;28;20195;-66
2021/06/26 00:09:49;;;;;;;16.37;12.23;;;17.00;99.90;;;;;;4991923;28;20284;-67
2021/06/26 00:12:15;;;;;;;15.10;13.60;;;17.00;99.90;;;;;;4992788;28;20230;-66
2021/06/26 00:14:40;;;;;;;15.20;13.77;;;17.00;99.90;;;;;;4992762;28;20291;-66
2021/06/26 00:17:06;;;;;;;15.50;14.03;;;17.00;99.90;;;;;;4992565;28;20454;-66
2021/06/26 00:19:32;;;;;;;16.77;15.17;;;17.00;99.90;;;;;;4992204;28;20666;-66
2021/06/26 00:21:58;;;;;;;13.50;12.40;;;17.00;99.90;;;;;;4992054;28;20557;-66
2021/06/26 00:24:24;;;;;;;13.57;12.07;;;17.00;99.90;;;;;;4992588;28;20198;-66
2021/06/26 00:26:50;;;;;;;13.67;12.30;;;17.00;99.90;;;;;;4991912;28;20475;-66
2021/06/26 00:29:16;;;;;;;14.63;13.43;;;16.90;99.90;;;;;;4991995;28;20207;-67
2021/06/26 00:31:42;;;;;;;15.43;14.03;;;16.90;99.90;;;;;;4984611;28;20423;-66
2021/06/26 00:34:07;;;;;;;15.20;13.90;;;16.80;99.90;;;;;;4991846;28;20485;-66
2021/06/26 00:36:33;;;;;;;14.57;13.03;;;16.80;99.90;;;;;;4992381;28;20283;-66
2021/06/26 00:38:58;;;;;;;14.13;13.00;;;16.80;99.90;;;;;;4992448;28;20183;-66
2021/06/26 00:41:24;;;;;;;13.47;11.30;;;16.80;99.90;;;;;;5007447;28;20708;-66
2021/06/26 00:43:49;;;;;;;14.13;12.83;;;16.80;99.90;;;;;;4992141;28;20277;-66
2021/06/26 00:46:15;;;;;;;13.97;12.57;;;16.80;99.90;;;;;;4996037;28;20245;-66
2021/06/26 00:48:40;;;;;;;14.23;12.90;;;16.90;99.90;;;;;;4996044;28;20215;-66
2021/06/26 00:51:06;;;;;;;13.43;12.10;;;16.90;99.90;;;;;;5000398;28;20176;-65
2021/06/26 00:53:32;;;;;;;14.60;13.30;;;16.90;99.90;;;;;;4996113;28;20532;-65
2021/06/26 00:55:58;;;;;;;12.70;11.50;;;16.80;99.90;;;;;;4995991;28;20207;-65
2021/06/26 00:58:24;;;;;;;13.93;12.80;;;16.90;99.90;;;;;;4995731;28;20951;-66
2021/06/26 01:00:51;;;;;;;13.30;12.20;;;16.90;99.90;;;;;;4996126;28;20658;-65
2021/06/26 01:03:17;;;;;;;16.33;14.70;;;16.90;99.90;;;;;;4995725;28;21000;-65
2021/06/26 01:05:42;;;;;;;15.97;14.37;;;16.80;99.90;;;;;;4995833;28;20586;-66
2021/06/26 01:08:09;;;;;;;15.67;14.37;;;16.60;99.90;;;;;;4995411;28;20191;-67
2021/06/26 01:10:34;;;;;;;15.17;12.97;;;16.50;99.90;;;;;;4995577;28;20187;-66
2021/06/26 01:13:00;;;;;;;14.97;13.63;;;16.50;99.90;;;;;;4995946;28;20423;-66
2021/06/26 01:15:26;;;;;;;15.67;14.27;;;16.70;99.90;;;;;;4995814;28;20654;-66
2021/06/26 01:17:51;;;;;;;15.83;14.33;;;16.60;99.90;;;;;;4995909;28;20223;-66
2021/06/26 01:20:18;;;;;;;15.60;13.23;;;16.60;99.90;;;;;;4995375;28;20182;-66
2021/06/26 01:22:45;;;;;;;14.50;13.30;;;16.70;99.90;;;;;;4995385;28;20649;-66
2021/06/26 01:25:20;;;;;;;15.80;14.40;;;16.60;99.90;;;;;;4994561;28;20438;-66
2021/06/26 01:27:45;;;;;;;13.57;11.80;;;16.70;99.90;;;;;;4980934;28;20458;-66
2021/06/26 01:30:14;;;;;;;14.07;12.67;;;16.70;99.90;;;;;;4975978;28;21035;-66
2021/06/26 01:32:40;;;;;;;11.67;10.50;;;16.70;99.90;;;;;;4976194;28;20194;-66
2021/06/26 01:35:06;;;;;;;12.40;11.30;;;16.80;99.90;;;;;;4988433;28;20517;-66
2021/06/26 01:37:32;;;;;;;14.90;12.17;;;16.80;99.90;;;;;;4995471;28;20195;-65
2021/06/26 01:39:58;;;;;;;14.60;12.00;;;16.80;99.90;;;;;;4994626;28;20430;-66
2021/06/26 01:42:23;;;;;;;13.17;12.00;;;16.70;99.90;;;;;;4995486;28;20211;-67
2021/06/26 01:44:49;;;;;;;14.03;12.63;;;16.70;99.90;;;;;;4995136;28;20622;-67
2021/06/26 01:47:15;;;;;;;13.60;12.30;;;16.70;99.90;;;;;;4993846;28;20234;-66
2021/06/26 01:49:40;;;;;;;12.40;11.20;;;16.70;99.90;;;;;;4995296;28;20273;-66
2021/06/26 01:52:09;;;;;;;12.57;11.47;;;16.80;99.90;;;;;;4995201;28;20538;-66
2021/06/26 01:54:36;;;;;;;13.90;12.50;;;16.70;99.90;;;;;;4994872;28;20649;-65
2021/06/26 01:57:02;;;;;;;12.30;11.10;;;16.80;99.90;;;;;;4994836;28;20457;-66
2021/06/26 01:59:28;;;;;;;12.40;11.40;;;16.70;99.90;;;;;;4994571;28;20807;-66
2021/06/26 02:01:53;;;;;;;12.90;11.77;;;16.70;99.90;;;;;;4994792;28;20179;-66
2021/06/26 02:04:18;;;;;;;13.50;12.30;;;16.70;99.90;;;;;;4994663;28;20717;-66
2021/06/26 02:06:45;;;;;;;15.13;12.67;;;16.70;99.90;;;;;;4994769;28;20214;-66
2021/06/26 02:09:10;;;;;;;13.77;12.57;;;16.70;99.90;;;;;;4994588;28;20535;-66
2021/06/26 02:11:36;;;;;;;12.63;11.53;;;16.70;99.90;;;;;;4994902;28;20422;-65
2021/06/26 02:14:01;;;;;;;13.43;12.30;;;16.70;99.90;;;;;;4994691;28;20721;-66
2021/06/26 02:16:27;;;;;;;13.17;11.80;;;16.70;99.90;;;;;;4994473;28;20254;-66
2021/06/26 02:18:53;;;;;;;13.33;12.13;;;16.70;99.90;;;;;;4994511;28;20250;-67
2021/06/26 02:21:19;;;;;;;13.10;11.93;;;16.60;99.90;;;;;;4994607;28;20238;-65
2021/06/26 02:23:44;;;;;;;12.97;11.63;;;16.60;99.90;;;;;;4994437;28;20446;-66
2021/06/26 02:26:10;;;;;;;13.43;12.23;;;16.60;99.90;;;;;;4994015;28;20206;-65
2021/06/26 02:28:35;;;;;;;11.47;10.37;;;16.70;99.90;;;;;;4993601;28;20203;-65
2021/06/26 02:31:01;;;;;;;12.60;11.50;;;16.60;99.90;;;;;;4994153;28;20179;-66
2021/06/26 02:33:27;;;;;;;12.13;10.93;;;16.60;99.90;;;;;;4994546;28;20175;-66
2021/06/26 02:35:52;;;;;;;12.53;11.50;;;16.70;99.90;;;;;;4994245;28;20175;-66
2021/06/26 02:38:18;;;;;;;12.90;11.60;;;16.70;99.90;;;;;;4994256;28;20547;-67
2021/06/26 02:40:43;;;;;;;17.93;10.23;;;16.70;99.90;;;;;;4993730;28;20567;-66
2021/06/26 02:43:09;;;;;;;13.00;11.80;;;16.70;99.90;;;;;;4994715;28;20255;-66
2021/06/26 02:45:34;;;;;;;14.23;11.83;;;16.70;99.90;;;;;;4993959;28;20218;-66
2021/06/26 02:48:00;;;;;;;12.90;11.80;;;16.60;99.90;;;;;;4992358;28;20219;-65
2021/06/26 02:50:25;;;;;;;12.43;11.40;;;16.60;99.90;;;;;;4986120;28;20234;-65
2021/06/26 02:52:50;;;;;;;13.27;12.07;;;16.60;99.90;;;;;;4994102;28;20172;-66
2021/06/26 02:55:16;;;;;;;13.10;12.07;;;16.50;99.90;;;;;;4994004;28;20641;-66
2021/06/26 02:57:42;;;;;;;14.73;12.30;;;16.50;99.90;;;;;;4993708;28;20206;-65
2021/06/26 03:00:09;;;;;;;14.73;13.33;;;16.50;99.90;;;;;;4993411;28;20658;-66
2021/06/26 03:02:34;;;;;;;14.57;13.40;;;16.50;99.90;;;;;;4993642;28;20192;-65
2021/06/26 03:05:00;;;;;;;13.97;12.77;;;16.50;99.90;;;;;;4993653;28;20426;-66
2021/06/26 03:07:25;;;;;;;15.83;14.03;;;16.40;99.90;;;;;;4993188;28;20195;-65
2021/06/26 03:09:51;;;;;;;13.17;11.97;;;16.30;99.90;;;;;;4992948;28;20903;-65
2021/06/26 03:12:17;;;;;;;14.93;13.53;;;16.30;99.90;;;;;;4993883;28;20168;-65
2021/06/26 03:14:42;;;;;;;14.10;12.43;;;16.20;99.90;;;;;;4993274;28;20226;-65
2021/06/26 03:17:08;;;;;;;14.47;12.50;;;16.20;99.90;;;;;;4993658;28;20196;-66
2021/06/26 03:19:34;;;;;;;14.53;12.30;;;16.10;99.90;;;;;;4993396;28;20191;-66
2021/06/26 03:21:59;;;;;;;13.50;12.40;;;16.00;99.90;;;;;;4993235;28;20195;-66
2021/06/26 03:24:27;;;;;;;12.90;11.80;;;16.00;99.90;;;;;;4993384;28;20219;-66
2021/06/26 03:26:52;;;;;;;14.30;11.67;;;15.90;99.90;;;;;;4992810;28;20203;-65
2021/06/26 03:29:18;;;;;;;13.53;12.27;;;16.00;99.90;;;;;;4993130;28;20470;-66
2021/06/26 03:31:43;;;;;;;14.80;13.23;;;15.90;99.90;;;;;;4993260;28;20564;-65
2021/06/26 03:34:09;;;;;;;14.63;13.40;;;15.90;99.90;;;;;;4993385;28;20184;-66
2021/06/26 03:36:34;;;;;;;13.67;12.20;;;15.80;99.90;;;;;;4992683;28;20199;-65
2021/06/26 03:39:00;;;;;;;14.03;12.63;;;15.80;99.90;;;;;;4992928;28;20186;-66
2021/06/26 03:41:26;;;;;;;14.57;13.33;;;15.70;99.90;;;;;;4993122;28;20195;-65
2021/06/26 03:43:58;;;;;;;13.43;12.03;;;15.70;99.90;;;;;;4993287;28;20641;-65
2021/06/26 03:46:24;;;;;;;14.73;13.23;;;15.60;99.90;;;;;;5017843;23;20451;-70
2021/06/26 03:48:49;;;;;;;14.43;13.13;;;15.60;99.90;;;;;;4991500;28;21047;-69
2021/06/26 03:51:15;;;;;;;13.93;12.63;;;15.60;99.90;;;;;;4995217;28;20434;-69
2021/06/26 03:53:40;;;;;;;15.10;13.70;;;15.60;99.90;;;;;;4992101;28;20175;-69
2021/06/26 03:56:06;;;;;;;16.90;15.30;;;15.70;99.90;;;;;;4993259;28;20171;-69
2021/06/26 03:58:31;;;;;;;17.90;16.10;;;15.70;99.90;;;;;;5010963;28;20198;-69
2021/06/26 04:00:57;;;;;;;18.20;15.40;;;15.70;99.90;;;;;;5011649;28;20182;-69
2021/06/26 04:03:23;;;;;;;17.00;15.17;;;15.80;99.90;;;;;;5012501;28;20182;-69
2021/06/26 04:05:49;;;;;;;16.10;14.60;;;15.90;99.90;;;;;;5012007;28;20194;-69
2021/06/26 04:08:14;;;;;;;17.10;15.60;;;16.00;99.90;;;;;;5012235;28;20438;-68
2021/06/26 04:10:42;;;;;;;15.37;13.67;;;16.00;99.90;;;;;;5012032;28;20171;-69
2021/06/26 04:13:08;;;;;;;14.50;13.10;;;16.10;99.90;;;;;;5012573;28;20200;-69
2021/06/26 04:15:35;;;;;;;13.00;11.70;;;16.20;99.90;;;;;;5011869;28;20429;-69
2021/06/26 04:18:01;;;;;;;15.40;14.00;;;16.40;99.90;;;;;;5011854;28;20191;-69
2021/06/26 04:20:26;;;;;;;15.63;12.70;;;16.50;99.90;;;;;;5010499;28;21322;-68
2021/06/26 04:22:52;;;;;;;13.83;12.53;;;16.70;99.90;;;;;;5012016;28;20249;-69
2021/06/26 04:25:19;;;;;;;14.93;13.63;;;16.80;99.90;;;;;;5011824;28;20667;-68
2021/06/26 04:27:45;;;;;;;16.17;14.77;;;16.80;99.90;;;;;;5011731;28;20456;-68
2021/06/26 04:30:12;;;;;;;17.13;15.13;;;16.90;99.90;;;;;;5011344;28;20457;-69
2021/06/26 04:32:39;;;;;;;16.33;14.63;;;17.00;99.90;;;;;;5011551;28;20744;-67
2021/06/26 04:35:07;;;;;;;15.30;14.00;;;17.00;99.90;;;;;;5002646;28;20793;-68
2021/06/26 04:37:33;;;;;;;14.20;12.70;;;17.20;99.90;;;;;;5004698;28;20443;-68
2021/06/26 04:39:59;;;;;;;14.80;13.47;;;17.30;99.90;;;;;;4992281;28;20795;-68
2021/06/26 04:42:24;;;;;;;16.20;14.67;;;17.30;99.90;;;;;;4992403;28;20179;-68
2021/06/26 04:44:50;;;;;;;16.90;15.30;;;17.40;99.90;;;;;;4992470;28;20180;-68
2021/06/26 04:47:16;;;;;;;15.60;14.30;;;17.40;99.90;;;;;;4992286;28;20256;-69
2021/06/26 04:49:41;;;;;;;16.27;14.73;;;17.50;99.90;;;;;;4995571;28;20256;-68
2021/06/26 04:52:08;;;;;;;18.67;17.00;;;17.60;99.90;;;;;;5001750;28;20182;-69
2021/06/26 04:54:34;;;;;;;16.53;14.73;;;17.60;99.90;;;;;;4992343;28;20529;-69
2021/06/26 04:56:59;;;;;;;17.90;16.20;;;17.70;99.90;;;;;;4992336;28;20450;-69
2021/06/26 04:59:25;;;;;;;17.97;16.27;;;17.80;99.90;;;;;;4991921;28;20179;-68
2021/06/26 05:01:50;;;;;;;22.33;20.03;;;17.90;99.90;;;;;;4992420;28;20246;-69
2021/06/26 05:04:16;;;;;;;20.73;18.67;;;18.00;99.90;;;;;;4991514;28;20183;-70
2021/06/26 05:06:41;;;;;;;19.47;17.57;;;18.10;99.90;;;;;;4992090;28;20215;-69
2021/06/26 05:09:07;;;;;;;19.13;17.27;;;18.30;99.90;;;;;;4991851;28;20677;-68
2021/06/26 05:11:33;;;;;;;21.67;19.47;;;18.40;99.90;;;;;;4992696;28;20601;-69
2021/06/26 05:13:58;;;;;;;17.83;15.73;;;18.50;99.90;;;;;;4992094;28;20172;-67
2021/06/26 05:16:24;;;;;;;21.03;18.57;;;18.70;99.90;;;;;;4992201;28;20246;-69
2021/06/26 05:18:49;;;;;;;22.60;20.60;;;18.80;99.90;;;;;;4991820;28;20176;-69
2021/06/26 05:21:15;;;;;;;19.27;17.40;;;18.90;99.90;;;;;;4992454;28;20591;-68
2021/06/26 05:23:40;;;;;;;22.20;20.00;;;19.00;99.90;;;;;;4992142;28;20536;-69
2021/06/26 05:26:09;;;;;;;21.77;19.77;;;18.90;99.90;;;;;;4992181;28;20544;-69
2021/06/26 05:28:35;;;;;;;23.10;20.60;;;19.00;99.90;;;;;;4991524;28;20257;-69
2021/06/26 05:31:00;;;;;;;21.47;19.20;;;19.00;99.90;;;;;;4993825;28;20513;-69
2021/06/26 05:33:26;;;;;;;21.97;19.73;;;19.20;99.90;;;;;;4995649;28;20451;-69
2021/06/26 05:35:51;;;;;;;21.43;19.27;;;19.30;99.90;;;;;;4996008;28;20192;-68
2021/06/26 05:38:17;;;;;;;21.43;19.10;;;19.50;99.90;;;;;;4995347;28;20739;-69
2021/06/26 05:40:42;;;;;;;22.30;20.20;;;19.70;99.90;;;;;;5009449;28;20172;-67
2021/06/26 05:43:08;;;;;;;21.27;19.07;;;20.00;99.90;;;;;;5015003;28;20202;-67
2021/06/26 05:45:33;;;;;;;21.20;19.10;;;19.90;99.90;;;;;;5015085;28;20179;-67
2021/06/26 05:47:59;;;;;;;20.77;18.70;;;20.10;99.90;;;;;;5014640;28;20214;-67
2021/06/26 05:50:25;;;;;;;22.40;20.20;;;20.30;99.90;;;;;;5014557;28;20206;-67
2021/06/26 05:52:53;;;;;;;21.20;19.20;;;20.40;99.90;;;;;;5013780;28;20171;-67
2021/06/26 05:55:20;;;;;;;18.50;16.63;;;20.50;99.90;;;;;;5014729;28;20836;-67
2021/06/26 05:57:46;;;;;;;20.43;18.37;;;20.50;99.90;;;;;;5014070;28;20819;-67
2021/06/26 06:00:13;;;;;;;19.00;17.30;;;20.60;99.90;;;;;;5014571;28;20426;-67
2021/06/26 06:02:39;;;;;;;19.23;17.33;;;20.50;99.90;;;;;;5014314;28;20541;-68
2021/06/26 06:05:08;;;;;;;18.70;16.90;;;20.60;99.90;;;;;;5002104;28;20521;-68
2021/06/26 06:07:36;;;;;;;19.20;17.40;;;20.70;99.90;;;;;;4994778;28;20462;-67
2021/06/26 06:10:04;;;;;;;19.13;17.33;;;21.00;99.90;;;;;;4994501;28;21007;-69
2021/06/26 06:12:32;;;;;;;21.33;15.70;;;21.00;99.90;;;;;;4995459;28;20410;-69
2021/06/26 06:14:57;;;;;;;17.87;16.20;;;20.80;99.90;;;;;;5013268;28;20425;-70
2021/06/26 06:17:23;;;;;;;16.57;15.17;;;20.90;99.90;;;;;;5012731;28;20445;-67
2021/06/26 06:19:48;;;;;;;18.23;16.33;;;20.90;99.90;;;;;;5012345;28;20183;-74
2021/06/26 06:22:14;;;;;;;16.13;14.70;;;20.90;99.90;;;;;;5014352;28;20179;-66
2021/06/26 06:24:39;;;;;;;17.83;16.23;;;20.90;99.90;;;;;;5004807;28;20281;-66
2021/06/26 06:27:05;;;;;;;19.90;18.03;;;20.90;99.90;;;;;;4994125;28;20287;-67
2021/06/26 06:29:30;;;;;;;18.63;16.90;;;20.90;99.90;;;;;;4994384;28;20207;-67
2021/06/26 06:31:56;;;;;;;18.17;16.47;;;21.00;99.90;;;;;;4994462;28;20179;-67
2021/06/26 06:34:21;;;;;;;17.97;16.37;;;21.30;99.90;;;;;;5009851;28;20590;-67
2021/06/26 06:36:47;;;;;;;18.27;16.37;;;21.60;99.90;;;;;;4993087;28;20230;-67
2021/06/26 06:39:13;;;;;;;17.17;15.60;;;21.80;99.90;;;;;;4994345;28;20551;-67
2021/06/26 06:41:38;;;;;;;16.50;15.00;;;22.00;99.90;;;;;;4993813;28;20171;-67
2021/06/26 06:44:04;;;;;;;16.00;14.57;;;22.10;99.90;;;;;;4994096;28;20176;-67
2021/06/26 06:46:30;;;;;;;19.13;17.33;;;22.20;99.90;;;;;;4994230;28;20612;-67
2021/06/26 06:48:55;;;;;;;18.23;16.33;;;22.10;99.90;;;;;;4995574;28;20203;-64
2021/06/26 06:51:20;;;;;;;18.40;16.80;;;22.00;99.90;;;;;;5005652;28;20268;-65
2021/06/26 06:53:46;;;;;;;18.27;16.70;;;21.90;99.90;;;;;;5005491;28;20259;-67
2021/06/26 06:56:12;;;;;;;20.10;18.30;;;22.00;99.90;;;;;;5003009;28;20662;-67
2021/06/26 06:58:37;;;;;;;18.93;17.03;;;21.80;99.90;;;;;;4996718;28;20218;-67
2021/06/26 07:01:03;;;;;;;17.50;15.80;;;21.70;99.90;;;;;;4995500;28;20263;-67
2021/06/26 07:03:28;;;;;;;18.10;16.30;;;21.70;99.90;;;;;;5000984;28;20397;-67
2021/06/26 07:05:54;;;;;;;17.83;16.33;;;22.00;99.90;;;;;;5013577;28;20197;-67
2021/06/26 07:08:19;;;;;;;20.10;18.27;;;22.20;99.90;;;;;;5002789;28;20203;-67
2021/06/26 07:10:45;;;;;;;18.00;16.37;;;22.20;99.90;;;;;;5005694;28;20182;-68
2021/06/26 07:13:11;;;;;;;18.77;17.17;;;22.10;99.90;;;;;;4993778;28;20212;-67
2021/06/26 07:15:36;;;;;;;18.00;16.40;;;22.10;99.90;;;;;;5004223;28;20186;-67
2021/06/26 07:18:02;;;;;;;18.60;16.80;;;22.20;99.90;;;;;;4998658;28;20665;-65
2021/06/26 07:20:27;;;;;;;16.90;15.50;;;22.40;99.90;;;;;;5001629;28;20191;-65
2021/06/26 07:22:55;;;;;;;17.23;15.53;;;22.50;99.90;;;;;;5008969;28;20257;-65
2021/06/26 07:25:21;;;;;;;17.10;15.60;;;22.80;99.90;;;;;;5001771;28;20667;-65
2021/06/26 07:27:47;;;;;;;16.93;15.23;;;22.80;99.90;;;;;;4993457;28;20541;-66
2021/06/26 07:30:13;;;;;;;16.33;14.63;;;22.90;99.90;;;;;;4993178;28;20553;-68
2021/06/26 07:32:38;;;;;;;17.47;15.87;;;23.30;99.90;;;;;;4993389;28;20246;-66
2021/06/26 07:35:05;;;;;;;16.57;15.20;;;23.60;99.90;;;;;;4993461;28;20855;-64
2021/06/26 07:37:32;;;;;;;16.40;15.00;;;23.90;99.90;;;;;;4993079;28;20290;-65
2021/06/26 07:39:58;;;;;;;17.30;15.53;;;23.90;99.90;;;;;;4992950;28;20431;-65
2021/06/26 07:42:24;;;;;;;17.17;15.47;;;23.80;99.90;;;;;;4973027;28;20461;-66
2021/06/26 07:44:49;;;;;;;17.53;15.70;;;23.80;99.90;;;;;;4967161;28;20423;-65
2021/06/26 07:47:15;;;;;;;16.03;14.63;;;23.70;99.90;;;;;;4986656;28;20292;-66
2021/06/26 07:49:40;;;;;;;15.10;13.70;;;23.80;99.90;;;;;;4988607;28;20593;-68
2021/06/26 07:52:06;;;;;;;17.10;15.57;;;24.10;99.90;;;;;;4985751;28;20215;-68
2021/06/26 07:54:32;;;;;;;16.83;15.33;;;24.40;99.90;;;;;;4988526;28;20238;-67
2021/06/26 07:56:57;;;;;;;16.63;15.23;;;24.80;99.90;;;;;;4988696;28;20195;-67
2021/06/26 07:59:23;;;;;;;16.07;14.67;;;24.70;99.90;;;;;;4985992;28;20198;-67
2021/06/26 08:01:49;;;;;;;15.80;14.40;;;24.90;99.90;;;;;;4985483;28;20195;-68
2021/06/26 08:04:14;;;;;;;15.80;14.63;;;25.00;99.90;;;;;;4988954;28;20182;-68
2021/06/26 08:06:40;;;;;;;15.57;14.40;;;25.30;99.90;;;;;;4988990;28;20282;-68
2021/06/26 08:09:05;;;;;;;14.73;13.53;;;25.70;99.90;;;;;;4987927;28;20599;-69
2021/06/26 08:11:31;;;;;;;13.00;11.90;;;26.10;99.90;;;;;;4985129;28;20187;-67
2021/06/26 08:13:57;;;;;;;14.30;13.17;;;26.00;99.90;;;;;;4988680;28;20203;-67
2021/06/26 08:16:24;;;;;;;14.10;12.70;;;25.80;99.90;;;;;;4987074;28;20489;-67
2021/06/26 08:18:49;;;;;;;13.67;12.63;;;25.80;99.90;;;;;;4990850;28;20708;-66
2021/06/26 08:21:20;;;;;;;13.07;11.97;;;25.70;99.90;;;;;;4985310;28;20569;-63
2021/06/26 08:23:45;;;;;;;12.33;11.43;;;25.40;99.90;;;;;;4989250;28;20206;-64
2021/06/26 08:26:11;;;;;;;13.83;12.77;;;25.50;99.90;;;;;;4990647;28;20884;-64
2021/06/26 08:28:37;;;;;;;16.40;15.00;;;25.40;99.90;;;;;;4989854;28;20204;-66
2021/06/26 08:31:03;;;;;;;13.80;12.37;;;25.20;99.90;;;;;;4987096;28;20186;-65
2021/06/26 08:33:28;;;;;;;12.57;11.50;;;25.40;99.90;;;;;;4988969;28;20534;-64
2021/06/26 08:35:54;;;;;;;12.43;11.43;;;25.50;99.90;;;;;;4990487;28;20175;-68
2021/06/26 08:38:19;;;;;;;14.07;12.83;;;25.50;99.90;;;;;;4988187;28;20676;-67
2021/06/26 08:40:47;;;;;;;15.13;13.83;;;25.90;99.90;;;;;;4988582;28;20179;-67
2021/06/26 08:43:12;;;;;;;14.67;13.40;;;26.30;99.90;;;;;;4984744;28;20618;-67
2021/06/26 08:45:38;;;;;;;14.27;13.10;;;26.20;99.90;;;;;;4988770;28;20473;-67
2021/06/26 08:48:05;;;;;;;14.07;12.97;;;26.50;99.90;;;;;;4988299;28;20681;-67
2021/06/26 08:50:30;;;;;;;12.50;11.53;;;26.70;99.90;;;;;;4988141;28;20466;-68
2021/06/26 08:52:56;;;;;;;12.17;11.17;;;27.10;99.90;;;;;;4984824;28;20474;-67
2021/06/26 08:55:22;;;;;;;14.10;13.00;;;28.00;99.90;;;;;;4988491;28;20550;-65
2021/06/26 08:57:48;;;;;;;13.33;12.33;;;28.10;99.90;;;;;;4988219;28;20206;-66
2021/06/26 09:00:18;;;;;;;11.30;10.50;;;27.90;99.90;;;;;;4992212;28;20183;-65
2021/06/26 09:02:44;;;;;;;10.93;10.00;;;27.90;99.90;;;;;;4985038;28;20876;-65
2021/06/26 09:05:10;;;;;;;12.67;11.57;;;27.90;99.90;;;;;;4988893;28;20440;-65
2021/06/26 09:07:38;;;;;;;11.43;10.63;;;27.80;99.50;;;;;;4990907;28;20446;-65
2021/06/26 09:10:30;;;;;;;11.80;10.80;;;27.80;99.40;;;;;;4992531;28;20488;-65
2021/06/26 09:12:55;;;;;;;12.90;11.80;;;27.70;99.60;;;;;;4987792;28;20521;-65
2021/06/26 09:15:24;;;;;;;11.90;11.00;;;27.80;98.90;;;;;;4992962;28;20534;-65
2021/06/26 09:17:50;;;;;;;12.10;11.20;;;28.00;97.80;;;;;;4992236;28;20526;-65
2021/06/26 09:20:16;;;;;;;12.33;11.43;;;27.90;97.70;;;;;;4992014;28;20430;-65
2021/06/26 09:22:49;;;;;;;10.57;9.77;;;27.90;98.00;;;;;;4988676;28;20528;-65
2021/06/26 09:25:35;;;;;;;12.37;11.50;;;27.70;97.70;;;;;;4992360;28;20203;-64
2021/06/26 09:28:08;;;;;;;11.90;10.73;;;27.40;97.80;;;;;;4992039;28;20878;-65
2021/06/26 09:30:40;;;;;;;10.80;10.10;;;26.80;98.60;;;;;;4992112;28;20458;-65
2021/06/26 09:33:17;;;;;;;11.53;10.53;;;26.80;99.10;;;;;;4988657;28;20529;-65
2021/06/26 09:36:04;;;;;;;11.57;10.70;;;27.20;98.40;;;;;;4992107;28;20419;-65
2021/06/26 09:38:31;;;;;;;10.50;9.70;;;27.80;97.70;;;;;;4991591;28;20438;-65
2021/06/26 09:40:58;;;;;;;10.60;9.80;;;28.40;97.20;;;;;;4991245;28;20433;-64
2021/06/26 09:43:29;;;;;;;10.57;9.77;;;28.50;95.60;;;;;;4989405;28;20437;-65
2021/06/26 09:46:15;;;;;;;10.00;9.10;;;28.30;95.50;;;;;;4990658;28;20923;-65
2021/06/26 09:48:55;;;;;;;10.13;9.50;;;28.20;95.30;;;;;;5059596;23;20491;-63
2021/06/26 09:51:26;;;;;;;11.57;10.67;;;28.50;95.80;;;;;;5026524;28;20441;-62
2021/06/26 09:54:02;;;;;;;10.60;9.80;;;28.90;95.00;;;;;;5030745;28;20917;-63
2021/06/26 09:56:42;;;;;;;10.07;9.40;;;29.50;94.30;;;;;;5031551;28;20584;-62
2021/06/26 09:59:09;;;;;;;10.03;9.20;;;29.70;93.80;;;;;;5011178;28;20422;-63
2021/06/26 10:01:36;;;;;;;10.80;10.10;;;29.70;92.80;;;;;;5007826;28;20500;-62
2021/06/26 10:04:05;;;;;;;9.90;9.10;;;29.60;93.80;;;;;;5011247;28;20512;-62
2021/06/26 10:06:34;;;;;;;9.87;9.17;;;29.90;93.10;;;;;;5011429;28;20430;-62
2021/06/26 10:09:01;;;;;;;9.37;8.77;;;30.80;91.70;;;;;;5011082;28;20545;-62
2021/06/26 10:11:29;;;;;;;9.77;9.17;;;31.50;88.80;;;;;;5007965;28;20506;-62
2021/06/26 10:13:55;;;;;;;8.73;8.17;;;31.50;87.40;;;;;;5009006;28;20965;-63
2021/06/26 10:16:23;;;;;;;9.80;8.93;;;31.60;86.20;;;;;;5011121;28;20509;-62
2021/06/26 10:18:50;;;;;;;8.73;8.20;;;30.70;86.40;;;;;;5010900;28;20202;-62
2021/06/26 10:21:16;;;;;;;9.57;8.97;;;30.10;88.30;;;;;;5007915;28;20429;-63
2021/06/26 10:23:42;;;;;;;12.53;11.43;;;29.90;88.00;;;;;;5010417;28;20803;-62
2021/06/26 10:26:10;;;;;;;8.83;8.23;;;29.60;88.10;;;;;;5009654;28;20179;-62
2021/06/26 10:28:47;;;;;;;8.20;7.47;;;29.90;88.90;;;;;;5010369;28;20526;-62
2021/06/26 10:31:13;;;;;;;8.50;8.00;;;30.90;84.70;;;;;;5000233;28;20580;-61
2021/06/26 10:33:40;;;;;;;8.50;8.00;;;30.70;83.00;;;;;;5009355;28;20445;-61
2021/06/26 10:36:05;;;;;;;9.93;9.13;;;30.20;84.60;;;;;;5009099;28;20426;-60
2021/06/26 10:38:45;;;;;;;8.80;8.20;;;30.40;85.70;;;;;;5010370;28;20441;-60
2021/06/26 10:41:19;;;;;;;9.10;8.50;;;31.00;84.30;;;;;;5008129;28;20175;-61
2021/06/26 10:43:56;;;;;;;8.93;8.23;;;31.80;82.00;;;;;;5009957;28;20433;-61
2021/06/26 10:46:22;;;;;;;9.97;9.17;;;31.80;80.20;;;;;;5010423;28;20644;-61
2021/06/26 10:48:58;;;;;;;10.00;9.40;;;31.80;79.30;;;;;;5010037;28;20473;-63
2021/06/26 10:51:35;;;;;;;9.23;8.63;;;32.70;79.00;;;;;;5007244;28;20179;-62
2021/06/26 10:54:14;;;;;;;10.63;9.93;;;33.30;77.10;;;;;;5010011;28;20425;-62
2021/06/26 10:56:41;;;;;;;8.67;8.17;;;33.30;75.90;;;;;;5010203;28;20449;-62
2021/06/26 10:59:24;;;;;;;8.43;7.93;;;33.10;74.50;;;;;;5009711;28;20546;-62
2021/06/26 11:02:03;;;;;;;8.30;7.70;;;32.20;73.80;;;;;;5006415;28;20425;-63
2021/06/26 11:04:30;;;;;;;8.83;8.20;;;30.70;75.20;;;;;;5010206;28;20449;-62
2021/06/26 11:07:07;;;;;;;9.10;8.50;;;29.40;78.00;;;;;;5010145;28;20450;-63
2021/06/26 11:09:50;;;;;;;10.13;9.43;;;28.90;80.80;;;;;;5009935;28;20503;-62
2021/06/26 11:12:19;;;;;;;7.80;7.30;;;28.50;82.10;;;;;;5006051;28;20421;-62
2021/06/26 11:14:57;;;;;;;10.50;8.17;;;27.70;83.80;;;;;;5010064;28;20941;-63
2021/06/26 11:17:40;;;;;;;10.07;8.80;;;28.30;84.00;;;;;;5010276;28;20452;-62
2021/06/26 11:20:18;;;;;;;8.17;7.67;;;29.60;81.00;;;;;;5009735;28;20424;-62
2021/06/26 11:23:00;;;;;;;8.23;7.53;;;29.60;79.50;;;;;;5006460;28;20457;-62
2021/06/26 11:25:30;;;;;;;7.50;7.00;;;29.90;78.70;;;;;;5009811;28;20480;-62
2021/06/26 11:28:10;;;;;;;7.40;7.00;;;31.40;77.60;;;;;;5009302;28;20495;-62
2021/06/26 11:30:37;;;;;;;7.90;7.40;;;31.80;75.90;;;;;;5009341;28;20557;-62
2021/06/26 11:33:03;;;;;;;7.40;6.90;;;32.00;75.30;;;;;;5005678;28;20864;-62
2021/06/26 11:35:36;;;;;;;7.77;7.27;;;33.10;75.00;;;;;;5009800;28;20458;-62
2021/06/26 11:38:02;;;;;;;7.60;7.10;;;34.50;70.10;;;;;;5009729;28;20552;-62
2021/06/26 11:40:29;;;;;;;7.63;7.17;;;34.40;65.50;;;;;;5009290;28;20830;-62
2021/06/26 11:42:59;;;;;;;8.63;8.00;;;32.60;69.20;;;;;;5005717;28;20678;-62
2021/06/26 11:45:45;;;;;;;6.93;6.53;;;30.90;71.30;;;;;;5009411;28;20671;-62
2021/06/26 11:48:12;;;;;;;7.33;6.83;;;29.80;73.50;;;;;;5009519;28;20461;-62
2021/06/26 11:50:46;;;;;;;7.93;7.43;;;29.40;74.70;;;;;;5007845;28;20469;-62
2021/06/26 11:53:13;;;;;;;8.50;8.00;;;28.90;76.90;;;;;;5005627;28;20792;-62
2021/06/26 11:55:55;;;;;;;8.00;7.40;;;29.00;78.40;;;;;;5009269;28;20973;-62
2021/06/26 11:58:22;;;;;;;8.73;8.13;;;31.50;76.00;;;;;;5009091;28;20442;-62
2021/06/26 12:01:08;;;;;;;9.97;9.33;;;34.10;70.60;;;;;;5009437;28;20492;-62
2021/06/26 12:03:34;;;;;;;10.80;10.10;;;35.30;66.50;;;;;;5007854;28;20980;-62
2021/06/26 12:06:05;;;;;;;8.73;8.03;;;35.20;66.00;;;;;;5009138;28;20432;-63
2021/06/26 12:08:40;;;;;;;7.77;7.17;;;35.30;64.90;;;;;;5008639;28;20441;-63
2021/06/26 12:11:05;;;;;;;6.90;6.50;;;35.80;61.50;;;;;;5007320;28;20425;-62
2021/06/26 12:13:31;;;;;;;7.60;7.10;;;35.90;61.50;;;;;;5005873;28;20952;-63
2021/06/26 12:15:57;;;;;;;7.37;6.77;;;35.60;60.80;;;;;;5009278;28;20549;-62
2021/06/26 12:18:22;;;;;;;7.60;7.10;;;34.50;61.70;;;;;;5008716;28;20241;-63
2021/06/26 12:20:48;;;;;;;7.33;6.73;;;33.30;61.50;;;;;;5008851;28;20217;-62
2021/06/26 12:23:14;;;;;;;7.40;6.90;;;32.50;63.80;;;;;;5005074;28;20206;-63
2021/06/26 12:25:42;;;;;;;6.97;6.57;;;33.50;62.90;;;;;;5009055;28;20209;-62
2021/06/26 12:28:08;;;;;;;6.87;6.47;;;34.60;59.90;;;;;;5008726;28;20197;-62
2021/06/26 12:30:42;;;;;;;6.50;6.10;;;35.00;60.30;;;;;;5008669;28;20588;-62